KCEW/CEW METAR and TAF weather

Enter ICAO airport designator
Station Type Date Time Source
KCEW METAR 2019/10/21 02:53 UTC NOAA

KCEW 210253Z AUTO 00000KT 7SM CLR 17/16 A2998 RMK AO2 SLP148 T01720161 51014


Station Type Date Time Source
KCEW Decoded METAR 2019/10/21 02:53 UTC NOAA

CRESTVIEW SIKES AIRPORT, FL, United States (KCEW) 30-46N 086-31W 55M
Oct 20, 2019 - 10:53 PM EDT / 2019.10.21 0253 UTC
Wind: Calm:0
Visibility: 7 mile(s):0
Sky conditions: clear
Temperature: 63.0 F (17.2 C)
Dew Point: 61.0 F (16.1 C)
Relative Humidity: 93%
Pressure (altimeter): 29.98 in. Hg (1015 hPa)
Pressure tendency: 0.04 inches (1.4 hPa) higher than three hours ago
ob: KCEW 210253Z AUTO 00000KT 7SM CLR 17/16 A2998 RMK AO2 SLP148 T01720161 51014
cycle: 3

Station Type Date Time Source
KCEW TAF UTC NOAA

Error!

Example: see airport list